Time;durP1;ratioP1;P1;durP2;ratioP2;P2;SDS_P1;SDS_P2;PMS_P1;PMS_P2;Temp;Humidity;BMP_temperature;BMP_pressure;BME280_temperature;BME280_humidity;BME280_pressure;Samples;Min_cycle;Max_cycle;Signal;HPM_P1;HPM_P2
2022/04/26 03:36:06;;;;;;;4.53;2.00;;;;;;;12.31;81.68;98474.00;1715282;83;20985;-43
2022/04/26 03:38:38;;;;;;;4.67;2.00;;;;;;;12.31;81.72;98479.44;1715339;83;21004;-43
2022/04/26 03:41:05;;;;;;;6.70;2.50;;;;;;;12.35;81.69;98484.86;1715695;83;21587;-44
2022/04/26 03:43:33;;;;;;;5.53;2.12;;;;;;;12.35;81.74;98481.56;1715465;83;21020;-44
2022/04/26 03:46:01;;;;;;;4.28;2.15;;;;;;;12.32;81.91;98486.43;1715380;83;21008;-44
2022/04/26 03:48:29;;;;;;;5.03;2.00;;;;;;;12.31;82.02;98490.89;1715513;83;21605;-44
2022/04/26 03:50:56;;;;;;;2.50;1.70;;;;;;;12.32;82.03;98494.58;1732569;82;23162;-44
2022/04/26 03:53:23;;;;;;;2.90;1.70;;;;;;;12.34;81.87;98496.34;1715170;83;21524;-44
2022/04/26 03:55:51;;;;;;;4.75;2.30;;;;;;;12.35;81.92;98499.22;1715508;83;20984;-44
2022/04/26 03:58:19;;;;;;;3.65;1.80;;;;;;;12.33;82.04;98511.09;1710576;83;21092;-43
2022/04/26 04:00:45;;;;;;;5.05;1.85;;;;;;;12.33;82.05;98521.95;1715572;83;21084;-44
2022/04/26 04:03:13;;;;;;;4.17;2.27;;;;;;;12.36;82.08;98523.11;1715553;83;21479;-44
2022/04/26 04:05:42;;;;;;;4.92;2.20;;;;;;;12.36;82.11;98523.88;1715250;83;21496;-44
2022/04/26 04:08:09;;;;;;;6.00;2.20;;;;;;;12.33;82.29;98525.26;1715372;83;20953;-44
2022/04/26 04:10:37;;;;;;;4.70;1.98;;;;;;;12.30;82.48;98528.16;1715397;83;21034;-44
2022/04/26 04:13:05;;;;;;;4.92;2.08;;;;;;;12.32;82.48;98529.91;1715186;83;21029;-44
2022/04/26 04:15:34;;;;;;;6.28;2.20;;;;;;;12.35;82.54;98522.33;1715156;83;20981;-44
2022/04/26 04:18:00;;;;;;;6.17;2.00;;;;;;;12.37;82.56;98524.08;1715264;83;20925;-44
2022/04/26 04:20:30;;;;;;;4.40;1.70;;;;;;;12.38;82.51;98524.28;1715152;83;21583;-44
2022/04/26 04:22:57;;;;;;;4.45;1.70;;;;;;;12.44;82.33;98528.13;1715251;83;21032;-44
2022/04/26 04:25:24;;;;;;;5.65;1.90;;;;;;;12.49;82.17;98529.09;1715236;83;21052;-44
2022/04/26 04:27:51;;;;;;;3.83;1.72;;;;;;;12.51;82.18;98525.98;1715375;83;21312;-43
2022/04/26 04:30:18;;;;;;;7.75;1.77;;;;;;;12.50;82.04;98530.65;1715172;83;21409;-44
2022/04/26 04:32:46;;;;;;;4.80;1.87;;;;;;;12.51;81.88;98534.14;1715537;83;21087;-44
2022/04/26 04:35:13;;;;;;;4.60;1.92;;;;;;;12.55;81.69;98541.70;1715373;83;20980;-44
2022/04/26 04:37:39;;;;;;;6.97;1.85;;;;;;;12.56;81.70;98541.33;1715536;83;21005;-44
2022/04/26 04:40:09;;;;;;;3.25;1.90;;;;;;;12.54;81.76;98543.64;1715656;83;21158;-44
2022/04/26 04:42:36;;;;;;;4.03;1.65;;;;;;;12.53;81.80;98546.20;1715747;83;21020;-44
2022/04/26 04:45:05;;;;;;;3.87;1.60;;;;;;;12.57;81.79;98544.24;1715486;83;20937;-44
2022/04/26 04:47:32;;;;;;;3.67;1.82;;;;;;;12.62;81.74;98549.86;1715626;83;21004;-44
2022/04/26 04:49:59;;;;;;;4.62;1.50;;;;;;;12.62;81.73;98552.58;1715137;83;21068;-44
2022/04/26 04:52:25;;;;;;;3.12;1.62;;;;;;;12.60;81.96;98548.89;1715252;83;21221;-44
2022/04/26 04:54:53;;;;;;;5.58;1.70;;;;;;;12.64;81.96;98552.95;1715209;83;20960;-43
2022/04/26 04:57:19;;;;;;;4.37;1.90;;;;;;;12.68;81.65;98552.95;1715407;83;21491;-44
2022/04/26 04:59:46;;;;;;;4.20;1.90;;;;;;;12.70;81.21;98558.77;1715276;83;21039;-44
2022/04/26 05:02:13;;;;;;;4.50;1.85;;;;;;;12.69;81.03;98559.92;1715366;83;21047;-44
2022/04/26 05:04:42;;;;;;;3.50;1.72;;;;;;;12.67;81.07;98555.48;1715388;83;21499;-44
2022/04/26 05:07:10;;;;;;;4.30;1.80;;;;;;;12.71;80.97;98561.69;1715438;83;20988;-44
2022/04/26 05:09:37;;;;;;;5.40;1.75;;;;;;;12.74;81.04;98560.88;1715355;83;21084;-43
2022/04/26 05:12:07;;;;;;;4.90;1.57;;;;;;;12.79;80.92;98566.70;1715579;83;21436;-44
2022/04/26 05:14:35;;;;;;;5.07;1.83;;;;;;;12.77;80.54;98566.34;1715688;83;21029;-44
2022/04/26 05:17:03;;;;;;;5.22;1.80;;;;;;;12.78;80.50;98569.84;1715467;83;21248;-43
2022/04/26 05:19:31;;;;;;;4.35;1.52;;;;;;;12.81;80.31;98575.26;1715545;83;21091;-44
2022/04/26 05:21:58;;;;;;;2.55;1.70;;;;;;;12.85;80.17;98575.24;1715315;83;21060;-43
2022/04/26 05:27:11;;;;;;;2.60;1.40;;;;;;;12.82;79.95;98574.67;1715371;83;21099;-43
2022/04/26 05:29:41;;;;;;;2.95;1.60;;;;;;;12.86;79.89;98578.16;1715318;83;21961;-44
2022/04/26 05:32:08;;;;;;;6.20;1.87;;;;;;;12.91;79.90;98587.28;1715159;83;21001;-44
2022/04/26 05:34:34;;;;;;;2.95;1.50;;;;;;;12.93;80.06;98593.86;1715316;83;21071;-44
2022/04/26 05:37:02;;;;;;;4.60;1.80;;;;;;;12.96;79.62;98581.44;1709883;82;21096;-44
2022/04/26 05:39:30;;;;;;;3.40;1.47;;;;;;;13.02;79.29;98583.95;1689537;85;21607;-44
2022/04/26 05:41:57;;;;;;;4.65;1.80;;;;;;;13.07;78.99;98582.16;1707599;84;21890;-44
2022/04/26 05:44:23;;;;;;;3.50;1.52;;;;;;;13.11;78.99;98577.53;1694912;84;20957;-44
2022/04/26 05:46:52;;;;;;;4.70;1.70;;;;;;;13.17;78.41;98586.81;1695078;84;21004;-43
2022/04/26 05:49:18;;;;;;;3.35;1.50;;;;;;;13.22;78.21;98587.77;1694899;84;21073;-44
2022/04/26 05:51:45;;;;;;;3.72;1.70;;;;;;;13.26;77.96;98592.63;1695102;84;21072;-44
2022/04/26 05:54:13;;;;;;;6.00;2.00;;;;;;;13.31;77.82;98587.36;1684527;83;21583;-43
2022/04/26 05:56:42;;;;;;;4.95;1.80;;;;;;;13.36;77.59;98591.78;1667196;86;21068;-44
2022/04/26 05:59:09;;;;;;;3.65;1.82;;;;;;;13.45;77.55;98590.02;1667196;86;21077;-44
2022/04/26 06:01:37;;;;;;;2.45;1.70;;;;;;;13.55;77.39;98600.66;1667138;86;21052;-44
2022/04/26 06:04:05;;;;;;;5.03;2.00;;;;;;;13.62;77.18;98602.74;1667280;86;21504;-44
2022/04/26 06:06:32;;;;;;;3.05;1.67;;;;;;;13.68;76.64;98604.47;1666969;86;21218;-43
2022/04/26 06:09:03;;;;;;;6.40;2.15;;;;;;;13.69;76.16;98603.30;1667031;86;20961;-43
2022/04/26 06:11:30;;;;;;;2.98;1.30;;;;;;;13.71;75.95;98607.75;1667410;86;21589;-44
2022/04/26 06:14:00;;;;;;;4.33;1.57;;;;;;;13.72;75.76;98613.39;1667021;84;21012;-44
2022/04/26 06:16:28;;;;;;;3.02;1.57;;;;;;;13.71;75.68;98615.34;1669719;86;21069;-44
2022/04/26 06:18:55;;;;;;;2.67;1.30;;;;;;;13.64;76.13;98614.03;1669496;86;21227;-44
2022/04/26 06:21:24;;;;;;;2.02;1.20;;;;;;;13.65;76.31;98614.81;1669297;86;21041;-44
2022/04/26 06:23:51;;;;;;;4.05;1.70;;;;;;;13.66;76.01;98617.70;1669582;86;21068;-43
2022/04/26 06:26:20;;;;;;;4.35;1.55;;;;;;;13.62;75.89;98617.73;1669439;86;21116;-43
2022/04/26 06:28:47;;;;;;;5.25;1.52;;;;;;;13.55;76.40;98620.50;1669662;86;21132;-44
2022/04/26 06:31:15;;;;;;;2.87;1.55;;;;;;;13.54;76.87;98622.25;1669576;86;21113;-43
2022/04/26 06:33:42;;;;;;;3.75;1.55;;;;;;;13.56;77.02;98629.42;1669555;86;21021;-44
2022/04/26 06:36:09;;;;;;;4.28;1.52;;;;;;;13.58;76.91;98631.17;1669673;86;21029;-44
2022/04/26 06:38:36;;;;;;;2.55;1.37;;;;;;;13.58;76.77;98632.53;1669628;86;21052;-44
2022/04/26 06:41:02;;;;;;;4.80;1.52;;;;;;;13.53;76.33;98634.31;1669735;86;21061;-44
2022/04/26 06:43:32;;;;;;;5.15;1.60;;;;;;;13.48;76.13;98637.64;1669746;86;21617;-44
2022/04/26 06:45:59;;;;;;;3.72;1.40;;;;;;;13.47;76.19;98634.72;1670055;86;21476;-44
2022/04/26 06:48:26;;;;;;;2.37;1.60;;;;;;;13.46;75.90;98635.88;1669706;86;21024;-43
2022/04/26 06:50:56;;;;;;;3.58;1.47;;;;;;;13.42;76.37;98636.48;1669517;86;21128;-42
2022/04/26 06:53:23;;;;;;;3.98;1.52;;;;;;;13.40;76.55;98637.48;1669594;86;21116;-44
2022/04/26 06:55:51;;;;;;;4.22;1.50;;;;;;;13.44;76.46;98633.38;1669528;86;21247;-43
2022/04/26 06:58:20;;;;;;;;;;;;;;;13.47;76.16;98636.08;1671905;86;21008;-44
2022/04/26 07:00:48;;;;;;;4.25;1.75;;;;;;;13.47;76.13;98638.80;1669443;86;20212;-44
2022/04/26 07:03:15;;;;;;;4.45;1.60;;;;;;;13.39;76.48;98637.29;1669418;86;21012;-44
2022/04/26 07:05:44;;;;;;;4.30;1.57;;;;;;;13.43;76.34;98642.13;1669553;86;21104;-43
2022/04/26 07:08:12;;;;;;;4.53;1.50;;;;;;;13.52;76.54;98646.37;1669554;86;21917;-44
2022/04/26 07:10:40;;;;;;;3.98;1.80;;;;;;;13.59;76.57;98652.58;1669367;86;21005;-44
2022/04/26 07:13:08;;;;;;;5.15;2.12;;;;;;;13.58;75.66;98655.10;1669450;86;20961;-44
2022/04/26 07:15:35;;;;;;;3.15;1.60;;;;;;;13.53;75.52;98646.56;1663809;84;21053;-44
2022/04/26 07:18:03;;;;;;;2.77;1.50;;;;;;;13.52;75.51;98659.98;1659697;86;21062;-44
2022/04/26 07:20:31;;;;;;;3.15;1.57;;;;;;;13.48;75.50;98659.42;1659498;86;21099;-44
2022/04/26 07:23:01;;;;;;;4.03;1.77;;;;;;;13.47;75.80;98663.31;1659678;86;21009;-44
2022/04/26 07:25:28;;;;;;;3.98;1.67;;;;;;;13.44;75.88;98662.75;1659725;86;21029;-44
2022/04/26 07:27:55;;;;;;;3.27;1.65;;;;;;;13.41;75.86;98660.80;1659834;86;21571;-44
2022/04/26 07:30:23;;;;;;;2.95;1.65;;;;;;;13.42;75.78;98667.80;1659718;86;21105;-44
2022/04/26 07:35:35;;;;;;;3.15;1.57;;;;;;;13.43;75.93;98680.83;1659892;86;20934;-44
2022/04/26 07:38:07;;;;;;;3.70;1.70;;;;;;;13.40;75.83;98684.36;1659519;86;21083;-44
2022/04/26 07:40:34;;;;;;;2.65;1.52;;;;;;;13.42;75.88;98685.50;1659888;86;21073;-43
2022/04/26 07:43:01;;;;;;;1.55;1.25;;;;;;;13.44;76.13;98689.20;1659000;86;21094;-43
2022/04/26 07:45:29;;;;;;;4.78;1.52;;;;;;;13.40;75.74;98685.72;1671066;85;21347;-44
2022/04/26 07:47:56;;;;;;;21.52;1.55;;;;;;;13.36;75.79;98689.79;1713855;83;21021;-44
2022/04/26 07:50:22;;;;;;;2.12;1.40;;;;;;;13.33;75.46;98697.39;1713690;82;20989;-44
2022/04/26 07:52:50;;;;;;;3.83;1.60;;;;;;;13.32;75.51;98698.56;1713845;83;20981;-44
2022/04/26 07:55:16;;;;;;;3.50;1.90;;;;;;;13.28;75.94;98690.99;1713904;82;20998;-44
2022/04/26 07:57:44;;;;;;;4.35;1.65;;;;;;;13.31;76.19;98698.36;1713862;82;21456;-44
2022/04/26 08:00:16;;;;;;;5.28;1.70;;;;;;;13.35;76.24;98699.73;1713816;83;20934;-44
2022/04/26 08:02:43;;;;;;;7.53;1.50;;;;;;;13.39;75.99;98696.41;1713986;83;21048;-44
2022/04/26 08:05:14;;;;;;;3.55;1.60;;;;;;;13.40;76.31;98700.11;1713787;83;21085;-44
2022/04/26 08:07:41;;;;;;;2.60;1.40;;;;;;;13.44;75.52;98703.59;1713894;83;21023;-43
2022/04/26 08:10:11;;;;;;;3.30;1.50;;;;;;;13.49;75.56;98710.58;1713927;83;21243;-43
2022/04/26 08:12:39;;;;;;;4.50;1.87;;;;;;;13.58;75.48;98706.84;1714223;82;20894;-44
2022/04/26 08:15:14;;;;;;;2.62;1.50;;;;;;;13.64;74.96;98709.36;1714059;82;21041;-44
2022/04/26 08:17:42;;;;;;;3.83;1.62;;;;;;;13.63;74.83;98710.52;1714026;82;21092;-44
2022/04/26 08:20:11;;;;;;;3.67;1.82;;;;;;;13.65;74.84;98711.50;1713994;83;21018;-44
2022/04/26 08:22:39;;;;;;;3.77;1.90;;;;;;;13.41;74.93;98673.05;1713992;83;20938;-44
2022/04/26 08:27:54;;;;;;;3.87;1.70;;;;;;;13.75;75.14;98716.88;1713944;82;21085;-44
2022/04/26 08:30:23;;;;;;;2.95;1.80;;;;;;;13.76;75.05;98717.66;1713569;82;20978;-44
2022/04/26 08:32:51;;;;;;;5.53;1.42;;;;;;;13.79;75.20;98726.42;1713783;82;20996;-43
2022/04/26 08:35:21;;;;;;;3.05;1.60;;;;;;;13.85;74.78;98725.59;1713738;82;21238;-44
2022/04/26 08:37:48;;;;;;;2.98;1.70;;;;;;;13.88;74.96;98726.77;1714099;83;20946;-44
2022/04/26 08:40:16;;;;;;;6.10;1.80;;;;;;;13.94;74.78;98734.73;1713662;83;21037;-43
2022/04/26 08:42:48;;;;;;;3.80;1.57;;;;;;;13.93;74.18;98735.31;1713963;82;21037;-44
2022/04/26 08:45:17;;;;;;;3.25;1.42;;;;;;;13.94;74.03;98736.09;1713779;83;21018;-43
2022/04/26 08:53:21;;;;;;;3.85;1.60;;;;;;;14.21;73.57;98745.28;1713716;82;21560;-44
2022/04/26 08:55:51;;;;;;;4.67;1.80;;;;;;;14.24;73.72;98742.33;1713924;83;21104;-44
2022/04/26 08:58:18;;;;;;;3.98;1.52;;;;;;;14.30;73.61;98746.98;1713727;83;21112;-44
2022/04/26 09:01:22;;;;;;;2.35;1.27;;;;;;;14.44;73.18;98742.64;1713858;82;21132;-44
2022/04/26 09:03:54;;;;;;;3.35;1.70;;;;;;;14.55;71.96;98743.34;1713870;82;20934;-43
2022/04/26 09:06:39;;;;;;;3.47;1.57;;;;;;;14.63;72.01;98744.25;1713899;83;21006;-44
2022/04/26 09:09:18;;;;;;;2.70;1.40;;;;;;;14.77;70.98;98738.69;1714180;83;21026;-44
2022/04/26 09:11:48;;;;;;;3.95;1.65;;;;;;;14.98;70.93;98741.83;1714040;82;20954;-44
2022/04/26 09:14:37;;;;;;;3.15;1.52;;;;;;;15.29;70.00;98735.89;1714050;82;22086;-44
2022/04/26 09:17:13;;;;;;;2.60;1.60;;;;;;;15.55;68.56;98734.46;1713807;82;21507;-44
2022/04/26 09:19:52;;;;;;;2.83;1.50;;;;;;;15.72;67.08;98740.33;1713973;82;22042;-43
2022/04/26 09:22:20;;;;;;;3.72;1.70;;;;;;;15.76;65.50;98745.16;1713613;83;21040;-44
2022/04/26 09:25:06;;;;;;;3.05;1.45;;;;;;;15.82;65.24;98745.48;1714018;83;21475;-44
2022/04/26 09:27:39;;;;;;;2.30;1.50;;;;;;;15.94;64.48;98737.51;1713608;82;20892;-44
2022/04/26 09:30:11;;;;;;;2.10;1.35;;;;;;;16.07;65.00;98735.77;1713824;82;21049;-44
2022/04/26 09:32:45;;;;;;;3.80;1.92;;;;;;;16.16;64.38;98731.77;1713777;83;20989;-44
2022/04/26 09:35:22;;;;;;;3.08;1.62;;;;;;;16.21;64.95;98734.83;1713843;83;21601;-44
2022/04/26 09:37:49;;;;;;;3.75;1.45;;;;;;;16.22;64.56;98736.94;1713864;83;21063;-44
2022/04/26 09:40:20;;;;;;;4.92;1.62;;;;;;;16.12;64.53;98737.88;1714076;83;21590;-44
2022/04/26 09:42:51;;;;;;;2.67;1.62;;;;;;;16.07;65.02;98740.48;1727427;82;21002;-44
2022/04/26 09:45:18;;;;;;;3.37;1.60;;;;;;;16.04;65.27;98747.53;1713806;83;21025;-44
2022/04/26 09:47:45;;;;;;;3.12;1.95;;;;;;;15.96;65.49;98747.45;1713932;82;21002;-44
2022/04/26 09:50:14;;;;;;;5.10;1.60;;;;;;;15.93;67.11;98745.52;1713859;82;21073;-44
2022/04/26 09:52:42;;;;;;;2.22;1.42;;;;;;;15.99;67.61;98749.95;1714020;83;22335;-43
2022/04/26 09:55:10;;;;;;;4.00;1.75;;;;;;;16.07;66.95;98740.48;1713852;83;20981;-44
2022/04/26 09:57:38;;;;;;;5.25;2.02;;;;;;;16.15;66.17;98746.62;1713981;82;21819;-43
2022/04/26 10:00:11;;;;;;;2.72;1.80;;;;;;;16.19;65.82;98751.45;1714194;83;21034;-43
2022/04/26 10:02:44;;;;;;;4.40;2.15;;;;;;;16.22;66.96;98755.49;1714030;83;21030;-43
2022/04/26 10:05:10;;;;;;;2.80;1.92;;;;;;;16.33;67.82;98756.13;1714324;82;21772;-43
2022/04/26 10:07:46;;;;;;;2.98;1.70;;;;;;;16.42;66.36;98761.08;1713962;82;20982;-44
2022/04/26 10:10:14;;;;;;;3.20;1.50;;;;;;;16.37;63.03;98767.02;1714609;82;21045;-44
2022/04/26 10:12:41;;;;;;;4.15;2.12;;;;;;;16.25;64.35;98767.59;1714070;83;21025;-44
2022/04/26 10:15:10;;;;;;;4.60;2.27;;;;;;;16.12;65.10;98767.97;1714092;82;21004;-43
2022/04/26 10:17:52;;;;;;;4.00;2.00;;;;;;;16.00;65.97;98781.58;1726905;82;21068;-43
2022/04/26 10:20:39;;;;;;;3.75;1.70;;;;;;;15.91;66.45;98790.28;1726568;83;21023;-44
2022/04/26 10:23:07;;;;;;;2.15;1.70;;;;;;;15.83;66.69;98786.67;1735469;82;21020;-44
2022/04/26 10:25:34;;;;;;;4.12;2.33;;;;;;;15.70;67.01;98793.83;1726712;82;20993;-44
2022/04/26 10:28:29;;;;;;;3.10;1.85;;;;;;;15.58;68.39;98805.48;1726790;83;21096;-44
2022/04/26 10:30:57;;;;;;;4.17;2.33;;;;;;;15.44;69.54;98803.45;1727010;83;21106;-44
2022/04/26 10:33:42;;;;;;;3.90;1.87;;;;;;;15.26;70.40;98811.01;1726620;82;20964;-44
2022/04/26 10:36:33;;;;;;;3.75;2.10;;;;;;;15.11;70.97;98811.13;1726886;83;20953;-44
2022/04/26 10:39:16;;;;;;;6.15;2.10;;;;;;;14.91;71.56;98825.13;1735120;82;20949;-44
2022/04/26 10:41:45;;;;;;;3.95;1.80;;;;;;;14.68;72.12;98822.95;1726631;83;21044;-44
2022/04/26 10:44:22;;;;;;;3.25;1.70;;;;;;;14.55;72.52;98832.00;1726809;83;21159;-43
2022/04/26 10:47:03;;;;;;;3.52;1.70;;;;;;;14.46;72.58;98831.66;1726632;82;21057;-44
2022/04/26 10:49:41;;;;;;;2.40;1.60;;;;;;;14.35;71.85;98832.46;1713504;82;21056;-44
2022/04/26 10:52:22;;;;;;;5.03;1.70;;;;;;;14.29;72.39;98840.86;1726806;82;21523;-44
2022/04/26 10:55:03;;;;;;;3.17;1.32;;;;;;;14.24;73.00;98843.99;1726665;82;21016;-44
2022/04/26 10:57:39;;;;;;;3.50;1.60;;;;;;;14.28;73.12;98840.66;1726174;82;21147;-44
2022/04/26 11:00:17;;;;;;;3.75;1.50;;;;;;;14.37;73.83;98843.59;1726649;82;21625;-44
2022/04/26 11:02:48;;;;;;;3.83;1.82;;;;;;;14.44;74.17;98844.91;1726689;82;21051;-44
2022/04/26 11:05:19;;;;;;;4.05;1.80;;;;;;;14.55;74.38;98846.42;1726747;83;21033;-44
2022/04/26 11:07:48;;;;;;;5.12;1.57;;;;;;;14.67;74.30;98846.53;1727137;82;20926;-44
2022/04/26 11:10:23;;;;;;;3.30;2.08;;;;;;;14.78;74.30;98843.16;1726980;83;21137;-44
2022/04/26 11:12:52;;;;;;;5.90;2.22;;;;;;;14.80;74.23;98843.55;1726833;82;20965;-44
2022/04/26 11:15:25;;;;;;;4.47;2.02;;;;;;;14.84;74.27;98842.93;1722936;82;20984;-44
2022/04/26 11:17:54;;;;;;;3.55;1.87;;;;;;;14.90;74.32;98845.43;1721367;82;22130;-44
2022/04/26 11:20:24;;;;;;;5.83;2.22;;;;;;;15.01;74.93;98843.38;1727037;83;21084;-44
2022/04/26 11:22:56;;;;;;;3.12;1.75;;;;;;;15.13;75.02;98840.19;1726644;83;21181;-44
2022/04/26 11:28:17;;;;;;;3.12;1.80;;;;;;;15.37;73.77;98844.47;1726655;82;20973;-44
2022/04/26 11:30:52;;;;;;;1.75;1.25;;;;;;;15.50;72.91;98840.05;1726698;83;21564;-44
2022/04/26 11:33:24;;;;;;;3.62;1.70;;;;;;;15.68;72.74;98842.08;1726729;83;21013;-44
2022/04/26 11:35:59;;;;;;;3.90;1.70;;;;;;;15.87;71.74;98841.48;1726588;82;20968;-44
2022/04/26 11:38:27;;;;;;;3.87;1.80;;;;;;;15.99;70.94;98847.78;1726452;82;21542;-44
2022/04/26 11:41:03;;;;;;;4.15;1.50;;;;;;;16.01;70.72;98841.33;1726468;82;21028;-43
2022/04/26 11:43:36;;;;;;;3.75;1.70;;;;;;;15.96;70.04;98840.41;1726624;83;21052;-44
2022/04/26 11:46:04;;;;;;;2.33;1.70;;;;;;;15.91;69.98;98849.05;1726760;82;21019;-44
2022/04/26 11:48:36;;;;;;;2.52;2.00;;;;;;;15.80;69.29;98844.88;1726541;83;21087;-44
2022/04/26 11:51:06;;;;;;;2.42;1.65;;;;;;;15.77;69.42;98849.20;1726781;82;21446;-43
2022/04/26 11:53:36;;;;;;;2.77;2.00;;;;;;;15.78;70.03;98850.73;1726790;82;21542;-44
2022/04/26 11:56:05;;;;;;;3.27;2.50;;;;;;;15.84;69.89;98838.18;1734405;82;21092;-44
2022/04/26 11:58:35;;;;;;;3.52;2.40;;;;;;;15.85;69.15;98837.59;1726595;82;20953;-44
2022/04/26 12:01:15;;;;;;;3.92;2.77;;;;;;;15.75;69.28;98844.72;1726876;83;21549;-44
2022/04/26 12:03:55;;;;;;;2.90;2.60;;;;;;;15.70;69.62;98852.58;1726752;82;21004;-44
2022/04/26 12:06:29;;;;;;;3.83;2.90;;;;;;;15.67;69.20;98850.67;1726595;83;21641;-44
2022/04/26 12:09:03;;;;;;;3.27;2.98;;;;;;;15.67;69.05;98850.67;1726736;82;21308;-44
2022/04/26 12:11:35;;;;;;;6.40;3.45;;;;;;;15.68;68.97;98857.11;1726686;82;21031;-44
2022/04/26 12:14:11;;;;;;;4.12;3.35;;;;;;;15.73;69.33;98857.25;1722872;82;21588;-44
2022/04/26 12:16:59;;;;;;;3.52;2.08;;;;;;;15.78;69.62;98864.40;1722882;82;21519;-44
2022/04/26 12:19:36;;;;;;;2.40;1.98;;;;;;;15.86;68.64;98853.59;1712515;83;21910;-44
2022/04/26 12:22:06;;;;;;;6.00;3.17;;;;;;;15.98;68.40;98853.65;1714007;83;21025;-44
2022/04/26 12:24:48;;;;;;;5.15;3.20;;;;;;;16.13;68.91;98850.94;1714140;82;20993;-44
2022/04/26 12:27:19;;;;;;;3.90;3.30;;;;;;;16.29;67.00;98861.31;1713849;83;21090;-44
2022/04/26 12:29:51;;;;;;;3.62;3.20;;;;;;;16.33;65.76;98855.20;1714047;83;21021;-44
2022/04/26 12:32:20;;;;;;;4.10;3.30;;;;;;;16.34;66.25;98859.49;1713705;82;21069;-44
2022/04/26 12:34:52;;;;;;;3.55;3.08;;;;;;;16.40;65.16;98867.44;1713950;82;20969;-44
2022/04/26 12:37:31;;;;;;;4.58;3.33;;;;;;;16.38;64.81;98858.85;1713838;82;21045;-44
2022/04/26 12:40:11;;;;;;;3.83;3.37;;;;;;;16.36;65.02;98866.70;1714042;82;20895;-44
2022/04/26 12:42:41;;;;;;;3.02;2.27;;;;;;;16.39;64.79;98869.39;1713688;82;21496;-44
2022/04/26 12:45:21;;;;;;;4.50;3.35;;;;;;;16.60;64.49;98861.54;1713707;83;21084;-44
2022/04/26 12:50:36;;;;;;;3.80;3.42;;;;;;;16.79;63.12;98877.31;1705226;83;21104;-44
2022/04/26 12:53:06;;;;;;;5.50;4.00;;;;;;;16.76;63.59;98878.11;1713929;83;22039;-44
2022/04/26 12:55:39;;;;;;;4.20;3.80;;;;;;;16.65;63.98;98877.50;1713743;82;21042;-44
2022/04/26 12:58:10;;;;;;;4.40;3.80;;;;;;;16.50;64.22;98876.88;1713659;83;21077;-44
2022/04/26 13:00:47;;;;;;;5.97;4.58;;;;;;;16.35;64.22;98874.73;1714194;82;21004;-44
2022/04/26 13:03:18;;;;;;;6.95;4.65;;;;;;;16.21;64.59;98881.73;1713709;82;21025;-44
2022/04/26 13:05:54;;;;;;;5.78;4.15;;;;;;;16.07;65.12;98881.31;1713773;82;21908;-44
2022/04/26 13:08:22;;;;;;;4.65;3.70;;;;;;;15.93;65.30;98884.16;1713677;82;20945;-44
2022/04/26 13:10:49;;;;;;;4.08;3.60;;;;;;;15.74;64.74;98886.89;1713670;83;20986;-44
2022/04/26 13:13:18;;;;;;;4.70;3.02;;;;;;;15.58;65.41;98892.91;1713751;82;21004;-44
2022/04/26 13:15:46;;;;;;;3.80;3.40;;;;;;;15.54;65.85;98888.66;1713753;82;21535;-44
2022/04/26 13:18:15;;;;;;;3.70;3.30;;;;;;;15.54;65.56;98891.39;1724444;82;21016;-44
2022/04/26 13:20:44;;;;;;;4.15;3.17;;;;;;;15.45;65.86;98891.03;1726639;83;21533;-44
2022/04/26 13:23:13;;;;;;;4.00;3.12;;;;;;;15.37;65.72;98890.91;1726916;83;21060;-44
2022/04/26 13:25:41;;;;;;;6.33;3.58;;;;;;;15.28;66.41;98895.47;1726836;82;21563;-44
2022/04/26 13:28:08;;;;;;;4.08;3.67;;;;;;;15.16;66.42;98900.80;1726957;83;21021;-44
2022/04/26 13:32:17;;;;;;;4.28;3.80;;;;;;;14.92;66.71;98905.84;1830014;78;23250;-44
2022/04/26 13:34:45;;;;;;;4.95;4.20;;;;;;;14.61;67.61;98905.44;1803316;79;20919;-44
2022/04/26 13:37:13;;;;;;;7.12;4.78;;;;;;;14.42;69.46;98911.36;1803440;79;21213;-44
2022/04/26 13:39:40;;;;;;;7.90;5.17;;;;;;;14.23;70.75;98907.87;1802990;79;20967;-44
2022/04/26 13:42:07;;;;;;;6.85;5.22;;;;;;;14.13;71.69;98913.38;1803188;79;21470;-44
2022/04/26 13:44:34;;;;;;;6.70;5.97;;;;;;;14.03;71.92;98919.63;1803167;79;21580;-44
2022/04/26 13:47:04;;;;;;;7.65;6.37;;;;;;;13.87;72.39;98924.13;1803200;79;20935;-44
2022/04/26 13:49:34;;;;;;;7.28;6.35;;;;;;;13.76;73.09;98926.08;1803303;79;21295;-44
2022/04/26 13:52:03;;;;;;;10.75;7.67;;;;;;;13.69;72.97;98930.18;1803021;79;21620;-44
2022/04/26 13:54:32;;;;;;;10.18;7.87;;;;;;;13.62;72.86;98936.40;1803146;79;20982;-44
2022/04/26 13:56:59;;;;;;;9.65;8.63;;;;;;;13.53;73.30;98939.31;1803112;79;21895;-44
2022/04/26 13:59:27;;;;;;;10.03;8.00;;;;;;;13.45;73.61;98939.33;1803251;79;21000;-44
2022/04/26 14:01:55;;;;;;;10.98;8.08;;;;;;;13.39;73.75;98945.54;1803210;79;22126;-44
2022/04/26 14:04:22;;;;;;;9.58;8.28;;;;;;;13.36;73.67;98949.80;1802961;79;21887;-44
2022/04/26 14:06:50;;;;;;;11.28;8.23;;;;;;;13.31;73.73;98954.27;1803043;79;21002;-44
2022/04/26 14:09:17;;;;;;;12.80;9.30;;;;;;;13.28;74.01;98949.61;1803103;79;21005;-44
2022/04/26 14:11:45;;;;;;;13.55;9.65;;;;;;;13.26;74.16;98960.70;1803212;79;20988;-44
2022/04/26 14:22:32;;;;;;;14.28;9.70;;;;;;;13.01;74.40;98968.78;1803184;79;20959;-44
2022/04/26 14:25:08;;;;;;;12.45;10.18;;;;;;;12.99;74.73;98970.52;1803439;79;20880;-44
2022/04/26 14:27:36;;;;;;;12.07;9.53;;;;;;;12.99;74.82;98973.81;1803261;79;21219;-44
2022/04/26 14:30:06;;;;;;;9.98;8.40;;;;;;;12.94;75.06;98976.33;1803327;79;21552;-44
2022/04/26 14:32:36;;;;;;;12.40;8.60;;;;;;;12.86;74.38;98978.05;1812363;79;20950;-44
2022/04/26 14:35:07;;;;;;;9.85;8.05;;;;;;;12.80;74.46;98986.38;1811480;79;20954;-44
2022/04/26 14:37:35;;;;;;;9.65;7.28;;;;;;;12.74;74.68;98980.52;1812735;79;20938;-44
2022/04/26 14:40:03;;;;;;;7.97;6.33;;;;;;;12.67;75.04;98994.69;1812466;79;21943;-43
2022/04/26 14:42:31;;;;;;;8.55;6.62;;;;;;;12.61;75.17;98995.05;1812286;79;20958;-43
2022/04/26 14:44:57;;;;;;;8.35;6.55;;;;;;;12.64;75.30;98997.00;1811738;79;21473;-43
2022/04/26 14:47:27;;;;;;;8.65;6.55;;;;;;;12.63;75.07;98992.71;1811636;79;20962;-44
2022/04/26 14:50:02;;;;;;;11.38;6.67;;;;;;;12.57;74.92;98992.90;1811823;79;21077;-44
2022/04/26 14:52:27;;;;;;;10.18;6.35;;;;;;;12.53;75.10;98994.05;1811530;79;21282;-44
2022/04/26 14:54:57;;;;;;;8.03;6.40;;;;;;;12.53;75.42;98988.61;1811669;79;20966;-44
2022/04/26 14:57:25;;;;;;;10.10;7.03;;;;;;;12.54;75.60;99008.59;1811616;79;20987;-43
2022/04/26 14:59:52;;;;;;;7.90;6.47;;;;;;;12.54;75.81;99006.45;1811666;79;21006;-43
2022/04/26 15:02:19;;;;;;;8.13;5.65;;;;;;;12.53;75.60;99006.28;1811732;79;20993;-43
2022/04/26 15:04:47;;;;;;;11.18;6.47;;;;;;;12.54;75.54;99012.67;1811822;79;21555;-42
2022/04/26 15:07:14;;;;;;;9.90;7.15;;;;;;;12.54;75.59;99007.81;1812017;79;20951;-39
2022/04/26 15:09:52;;;;;;;8.28;7.15;;;;;;;12.55;75.39;99005.30;1811620;79;20986;-41
2022/04/26 15:17:49;;;;;;;9.45;7.85;;;;;;;12.52;75.84;99012.88;1811903;79;21945;-43
2022/04/26 15:20:18;;;;;;;9.63;7.65;;;;;;;12.53;75.57;99016.58;1811479;79;21013;-43
2022/04/26 15:22:47;;;;;;;10.75;7.92;;;;;;;12.52;75.62;99035.41;1811990;79;21462;-44
2022/04/26 15:25:15;;;;;;;12.37;7.67;;;;;;;12.52;75.56;99028.61;1811639;79;20971;-44
2022/04/26 15:27:42;;;;;;;9.33;8.00;;;;;;;12.56;75.69;99029.98;1811954;79;21046;-43
2022/04/26 15:30:11;;;;;;;13.85;8.40;;;;;;;12.61;75.73;99027.69;1811874;79;21062;-44
2022/04/26 15:32:39;;;;;;;14.15;8.30;;;;;;;12.60;75.80;99031.55;1793615;79;20990;-43
2022/04/26 15:35:09;;;;;;;11.50;8.40;;;;;;;12.55;75.78;99031.91;1791806;79;20998;-43
2022/04/26 15:37:35;;;;;;;12.30;8.70;;;;;;;12.55;75.80;99030.55;1792187;80;21643;-43
2022/04/26 15:40:03;;;;;;;10.80;8.55;;;;;;;12.56;75.94;99033.48;1791776;79;21014;-44
2022/04/26 15:42:32;;;;;;;13.18;8.60;;;;;;;12.53;75.93;99036.19;1791759;79;21206;-44
2022/04/26 15:45:01;;;;;;;9.33;8.08;;;;;;;12.44;75.97;99043.30;1792006;80;20951;-44
2022/04/26 15:47:29;;;;;;;9.98;8.18;;;;;;;12.42;75.99;99042.92;1791550;80;21475;-44
2022/04/26 15:49:56;;;;;;;11.40;8.58;;;;;;;12.46;75.91;99050.52;1791524;80;21051;-44
2022/04/26 15:52:24;;;;;;;10.13;8.80;;;;;;;12.46;75.61;99050.52;1791661;80;21596;-44
2022/04/26 15:54:52;;;;;;;9.90;7.70;;;;;;;12.43;75.62;99059.44;1791616;79;21533;-44